Time;durP1;ratioP1;P1;durP2;ratioP2;P2;SDS_P1;SDS_P2;PMS_P1;PMS_P2;Temp;Humidity;BMP_temperature;BMP_pressure;BME280_temperature;BME280_humidity;BME280_pressure;Samples;Min_cycle;Max_cycle;Signal;HPM_P1;HPM_P2
2023/03/05 00:00:04;;;;;;;15.43;11.70;;;5.90;99.90;;;;;;4971299;28;20023;-45
2023/03/05 00:02:30;;;;;;;17.90;12.10;;;6.00;99.90;;;;;;4972447;28;20495;-44
2023/03/05 00:04:56;;;;;;;18.80;11.70;;;6.00;99.90;;;;;;4954929;28;20030;-46
2023/03/05 00:07:21;;;;;;;17.27;11.88;;;5.90;99.90;;;;;;4972307;28;20107;-46
2023/03/05 00:09:47;;;;;;;78.70;43.38;;;5.90;99.90;;;;;;4972398;28;20062;-47
2023/03/05 00:12:12;;;;;;;39.53;23.33;;;5.80;99.90;;;;;;4972251;28;20372;-47
2023/03/05 00:14:38;;;;;;;32.58;19.98;;;5.80;99.90;;;;;;4972648;28;20094;-52
2023/03/05 00:17:04;;;;;;;15.02;11.38;;;5.90;99.90;;;;;;4971070;28;20034;-46
2023/03/05 00:19:29;;;;;;;14.40;11.02;;;5.90;99.90;;;;;;4972585;28;20027;-46
2023/03/05 00:21:55;;;;;;;23.50;11.82;;;6.00;99.90;;;;;;4972772;28;20031;-47
2023/03/05 00:24:20;;;;;;;17.88;10.63;;;5.90;99.90;;;;;;4974656;28;20023;-51
2023/03/05 00:26:46;;;;;;;24.20;10.82;;;5.90;99.90;;;;;;4975610;28;20031;-48
2023/03/05 00:29:17;;;;;;;20.92;10.95;;;6.00;99.90;;;;;;4975782;28;20387;-45
2023/03/05 00:31:43;;;;;;;15.30;10.32;;;5.90;99.90;;;;;;4975967;28;20027;-50
2023/03/05 00:34:13;;;;;;;14.27;9.70;;;5.90;99.90;;;;;;4973697;28;20042;-50
2023/03/05 00:36:41;;;;;;;15.13;9.90;;;5.90;99.90;;;;;;4975551;28;20055;-49
2023/03/05 00:39:07;;;;;;;19.92;9.27;;;5.90;99.90;;;;;;4972850;28;20050;-50
2023/03/05 00:41:33;;;;;;;17.67;10.20;;;5.80;99.90;;;;;;4973507;28;20029;-46
2023/03/05 00:43:58;;;;;;;14.27;9.20;;;5.90;99.90;;;;;;4974159;28;20027;-50
2023/03/05 00:46:26;;;;;;;16.10;10.20;;;5.90;99.90;;;;;;5022371;23;20046;-49
2023/03/05 00:48:52;;;;;;;15.75;10.63;;;5.90;99.90;;;;;;5013885;28;20018;-50
2023/03/05 00:51:18;;;;;;;14.10;10.13;;;5.80;99.90;;;;;;5013179;28;20061;-50
2023/03/05 00:53:44;;;;;;;18.25;9.80;;;5.80;99.90;;;;;;5013893;28;20449;-47
2023/03/05 00:56:09;;;;;;;14.73;9.75;;;5.80;99.90;;;;;;5029201;28;20053;-49
2023/03/05 00:58:35;;;;;;;18.92;9.98;;;5.80;99.90;;;;;;5014196;28;20097;-49
2023/03/05 01:01:01;;;;;;;17.75;9.88;;;5.90;99.90;;;;;;5014273;28;20060;-47
2023/03/05 01:03:27;;;;;;;16.00;9.57;;;5.90;99.90;;;;;;5013982;28;20030;-50
2023/03/05 01:05:53;;;;;;;13.70;9.88;;;5.90;99.90;;;;;;5013819;28;20500;-48
2023/03/05 01:08:19;;;;;;;15.25;9.48;;;5.80;99.90;;;;;;5012606;28;20029;-46
2023/03/05 01:10:44;;;;;;;12.77;9.13;;;5.80;99.90;;;;;;5014036;28;20026;-49
2023/03/05 01:13:10;;;;;;;18.88;9.77;;;5.80;99.90;;;;;;5014034;28;20117;-50
2023/03/05 01:15:35;;;;;;;15.48;10.68;;;5.80;99.90;;;;;;5013742;28;20067;-47
2023/03/05 01:18:01;;;;;;;21.92;10.40;;;5.80;99.90;;;;;;5012300;28;20448;-46
2023/03/05 01:20:26;;;;;;;17.67;9.23;;;5.80;99.90;;;;;;5013729;28;20030;-53
2023/03/05 01:22:52;;;;;;;16.98;9.55;;;5.80;99.90;;;;;;5012352;28;20389;-51
2023/03/05 01:25:18;;;;;;;14.35;8.98;;;5.90;99.90;;;;;;5013490;28;20393;-50
2023/03/05 01:27:44;;;;;;;19.95;8.98;;;5.90;99.90;;;;;;5028577;28;20393;-47
2023/03/05 01:30:11;;;;;;;18.25;9.02;;;5.90;99.90;;;;;;5013972;28;20038;-44
2023/03/05 01:32:37;;;;;;;14.00;8.70;;;5.80;99.90;;;;;;5013434;28;20026;-51
2023/03/05 01:35:04;;;;;;;21.55;9.20;;;5.80;99.90;;;;;;5011769;28;20112;-47
2023/03/05 01:37:29;;;;;;;13.20;8.60;;;5.80;99.90;;;;;;5013122;28;20092;-46
2023/03/05 01:39:55;;;;;;;16.65;9.07;;;5.80;99.90;;;;;;5012071;28;20489;-52
2023/03/05 01:42:21;;;;;;;12.35;8.85;;;5.90;99.90;;;;;;5013401;28;20434;-47
2023/03/05 01:45:01;;;;;;;14.60;7.78;;;6.10;99.90;;;;;;5011659;28;20030;-46
2023/03/05 01:47:26;;;;;;;14.95;8.93;;;6.00;99.90;;;;;;5012988;28;20052;-47
2023/03/05 01:49:53;;;;;;;17.40;8.57;;;5.90;99.90;;;;;;5013535;28;20026;-48
2023/03/05 01:52:22;;;;;;;17.20;9.48;;;5.90;99.90;;;;;;5011845;28;20026;-48
2023/03/05 01:54:59;;;;;;;18.35;9.00;;;5.90;99.90;;;;;;5016532;28;20470;-48
2023/03/05 01:57:31;;;;;;;15.23;8.27;;;6.00;99.90;;;;;;5012916;28;20030;-49
2023/03/05 02:00:01;;;;;;;16.40;8.43;;;5.90;99.90;;;;;;5013058;28;20030;-47
2023/03/05 02:02:27;;;;;;;19.20;8.45;;;5.90;99.90;;;;;;5013211;28;20037;-47
2023/03/05 02:05:00;;;;;;;13.13;7.20;;;5.80;99.90;;;;;;5013181;28;20025;-46
2023/03/05 02:07:26;;;;;;;16.83;7.60;;;5.80;99.90;;;;;;5013042;28;20056;-47
2023/03/05 02:09:52;;;;;;;14.95;7.47;;;5.80;99.90;;;;;;5012943;28;20432;-45
2023/03/05 02:12:17;;;;;;;13.88;7.20;;;5.80;99.90;;;;;;5012628;28;20038;-47
2023/03/05 02:14:46;;;;;;;22.83;7.28;;;5.70;99.90;;;;;;5011457;28;20033;-51
2023/03/05 02:17:12;;;;;;;22.60;7.63;;;5.70;99.90;;;;;;5027598;28;20021;-50
2023/03/05 02:19:53;;;;;;;21.98;7.75;;;5.80;99.90;;;;;;5027751;28;20026;-50
2023/03/05 02:22:20;;;;;;;14.38;7.70;;;5.80;99.90;;;;;;5012579;28;20021;-52
2023/03/05 02:24:46;;;;;;;16.55;7.93;;;5.70;99.90;;;;;;5012223;28;20105;-47
2023/03/05 02:27:13;;;;;;;16.35;8.13;;;5.80;99.90;;;;;;5012468;28;20116;-48
2023/03/05 02:29:42;;;;;;;13.35;7.50;;;5.80;99.90;;;;;;5012506;28;20093;-53
2023/03/05 02:32:08;;;;;;;18.90;8.98;;;5.70;99.90;;;;;;5012530;28;20121;-46
2023/03/05 02:34:34;;;;;;;12.18;7.82;;;5.70;99.90;;;;;;5011046;28;20129;-49
2023/03/05 02:37:01;;;;;;;12.25;8.65;;;5.80;99.90;;;;;;5011924;28;20022;-50
2023/03/05 02:39:27;;;;;;;13.95;7.82;;;5.80;99.90;;;;;;5027377;28;20493;-50
2023/03/05 02:41:52;;;;;;;15.00;8.25;;;5.70;99.90;;;;;;5011094;28;20041;-48
2023/03/05 02:44:18;;;;;;;17.23;8.88;;;5.80;99.90;;;;;;5012267;28;20084;-53
2023/03/05 02:46:43;;;;;;;19.40;10.00;;;5.80;99.90;;;;;;5010102;28;20104;-49
2023/03/05 02:49:09;;;;;;;17.27;9.63;;;5.80;99.90;;;;;;5012119;28;20038;-47
2023/03/05 02:51:34;;;;;;;17.73;10.00;;;5.70;99.90;;;;;;5012047;28;20025;-49
2023/03/05 02:54:00;;;;;;;15.73;8.55;;;5.70;99.90;;;;;;5012158;28;20068;-53
2023/03/05 02:56:25;;;;;;;22.90;8.07;;;5.60;99.90;;;;;;5012392;28;20084;-46
2023/03/05 02:58:51;;;;;;;14.13;8.23;;;5.60;99.90;;;;;;5011873;28;20068;-50
2023/03/05 03:01:16;;;;;;;15.82;8.13;;;5.60;99.90;;;;;;5011945;28;20022;-49
2023/03/05 03:03:42;;;;;;;17.95;8.60;;;5.60;99.90;;;;;;5012492;28;20026;-50
2023/03/05 03:06:07;;;;;;;10.93;7.40;;;5.70;99.90;;;;;;5027470;28;20033;-49
2023/03/05 03:08:33;;;;;;;12.00;8.07;;;5.70;99.90;;;;;;5011994;28;20061;-49
2023/03/05 03:11:07;;;;;;;10.82;7.18;;;5.70;99.90;;;;;;5028420;28;20029;-51
2023/03/05 03:13:33;;;;;;;13.63;7.93;;;5.60;99.90;;;;;;5012883;28;20038;-51
2023/03/05 03:16:16;;;;;;;14.20;7.47;;;5.60;99.90;;;;;;5010924;28;20048;-48
2023/03/05 03:18:43;;;;;;;12.98;8.27;;;5.70;99.90;;;;;;5026807;28;20109;-47
2023/03/05 03:21:16;;;;;;;11.10;7.88;;;5.70;99.90;;;;;;5011884;28;20362;-49
2023/03/05 03:23:41;;;;;;;13.07;8.05;;;5.70;99.90;;;;;;5011940;28;20026;-51
2023/03/05 03:26:06;;;;;;;14.82;8.15;;;5.70;99.90;;;;;;5011585;28;20497;-48
2023/03/05 03:28:32;;;;;;;12.23;7.47;;;5.70;99.90;;;;;;5011643;28;20040;-52
2023/03/05 03:30:57;;;;;;;14.82;6.70;;;5.70;99.90;;;;;;5011441;28;20393;-47
2023/03/05 03:33:23;;;;;;;11.02;6.88;;;5.70;99.90;;;;;;5012561;28;20092;-48
2023/03/05 03:35:48;;;;;;;11.20;7.82;;;5.80;99.90;;;;;;5012022;28;20408;-50
2023/03/05 03:38:14;;;;;;;14.02;7.15;;;5.80;99.90;;;;;;5012524;28;20521;-48
2023/03/05 03:40:41;;;;;;;13.02;6.82;;;5.80;99.90;;;;;;5012684;28;20022;-50
2023/03/05 03:43:07;;;;;;;15.60;7.60;;;5.80;99.90;;;;;;5012913;28;20026;-47
2023/03/05 03:45:32;;;;;;;12.43;7.60;;;5.70;99.90;;;;;;5011800;28;20030;-49
2023/03/05 03:47:58;;;;;;;11.50;6.57;;;5.70;99.90;;;;;;5011809;28;20088;-52
2023/03/05 03:50:24;;;;;;;11.65;7.05;;;5.70;99.90;;;;;;5010353;28;20026;-48
2023/03/05 03:52:50;;;;;;;14.10;7.22;;;5.70;99.90;;;;;;5011739;28;20028;-51
2023/03/05 03:55:16;;;;;;;16.27;8.60;;;5.70;99.90;;;;;;5010005;28;20120;-54
2023/03/05 03:57:42;;;;;;;14.27;7.53;;;5.60;99.90;;;;;;5012836;28;20046;-47
2023/03/05 04:00:10;;;;;;;16.08;7.95;;;5.70;99.90;;;;;;5015372;28;20026;-56
2023/03/05 04:02:35;;;;;;;13.00;8.02;;;5.70;99.90;;;;;;5013903;28;20026;-50
2023/03/05 04:05:02;;;;;;;10.93;7.93;;;5.70;99.90;;;;;;5030060;28;20022;-51
2023/03/05 04:07:27;;;;;;;16.65;8.23;;;5.70;99.90;;;;;;5015036;28;20080;-49
2023/03/05 04:09:53;;;;;;;14.88;8.15;;;5.70;99.90;;;;;;5030224;28;20099;-52
2023/03/05 04:12:18;;;;;;;10.55;7.70;;;5.70;99.90;;;;;;5014850;28;20029;-56
2023/03/05 04:14:46;;;;;;;10.30;7.70;;;5.70;99.90;;;;;;5014814;28;20113;-53
2023/03/05 04:17:12;;;;;;;13.13;7.85;;;5.70;99.90;;;;;;5014874;28;20037;-48
2023/03/05 04:19:38;;;;;;;11.52;7.35;;;5.70;99.90;;;;;;5014853;28;20026;-51
2023/03/05 04:22:04;;;;;;;14.00;7.80;;;5.60;99.90;;;;;;5014700;28;20022;-50
2023/03/05 04:24:29;;;;;;;15.82;8.00;;;5.70;99.90;;;;;;5014656;28;20026;-49
2023/03/05 04:26:55;;;;;;;10.13;7.40;;;5.70;99.90;;;;;;5014485;28;20048;-54
2023/03/05 04:29:20;;;;;;;17.98;8.13;;;5.60;99.90;;;;;;5029677;28;20061;-51
2023/03/05 04:31:46;;;;;;;16.13;7.72;;;5.60;99.90;;;;;;5013329;28;20378;-50
2023/03/05 04:34:11;;;;;;;12.18;7.38;;;5.60;99.90;;;;;;5014475;28;20029;-52
2023/03/05 04:36:37;;;;;;;14.93;8.23;;;5.60;99.90;;;;;;5014325;28;20124;-51
2023/03/05 04:39:03;;;;;;;15.10;7.85;;;5.60;99.90;;;;;;5014297;28;20139;-52
2023/03/05 04:41:29;;;;;;;17.60;8.82;;;5.60;99.90;;;;;;5013262;28;20060;-49
2023/03/05 04:43:54;;;;;;;17.23;8.40;;;5.60;99.90;;;;;;5029301;28;20583;-49
2023/03/05 04:46:20;;;;;;;13.38;8.60;;;5.60;99.90;;;;;;5014035;28;20034;-45
2023/03/05 04:48:45;;;;;;;14.23;9.90;;;5.60;99.90;;;;;;5014906;28;20478;-48
2023/03/05 04:51:11;;;;;;;17.05;8.13;;;5.50;99.90;;;;;;5013073;28;20022;-50
2023/03/05 04:53:36;;;;;;;16.80;10.30;;;5.60;99.90;;;;;;5012633;28;20363;-57
2023/03/05 04:56:02;;;;;;;16.83;9.55;;;5.60;99.90;;;;;;5013911;28;20040;-53
2023/03/05 04:58:28;;;;;;;13.70;8.40;;;5.60;99.90;;;;;;5012546;28;20030;-50
2023/03/05 05:00:53;;;;;;;12.07;8.20;;;5.50;99.90;;;;;;5013938;28;20496;-52
2023/03/05 05:03:19;;;;;;;18.02;9.85;;;5.50;99.90;;;;;;5013902;28;20064;-52
2023/03/05 05:05:44;;;;;;;20.27;9.52;;;5.50;99.90;;;;;;5013624;28;20029;-49
2023/03/05 05:08:10;;;;;;;18.27;9.50;;;5.50;99.90;;;;;;5013198;28;20036;-49
2023/03/05 05:10:38;;;;;;;17.38;9.70;;;5.50;99.90;;;;;;5013777;28;20071;-51
2023/03/05 05:13:04;;;;;;;18.13;9.57;;;5.50;99.90;;;;;;5014011;28;20113;-53
2023/03/05 05:15:31;;;;;;;19.85;9.50;;;5.50;99.90;;;;;;5013671;28;20097;-52
2023/03/05 05:17:56;;;;;;;18.77;9.80;;;5.50;99.90;;;;;;5013680;28;20076;-52
2023/03/05 05:20:22;;;;;;;23.13;10.43;;;5.50;99.90;;;;;;5014215;28;20433;-49
2023/03/05 05:22:47;;;;;;;20.17;9.55;;;5.40;99.90;;;;;;5014891;28;20022;-51
2023/03/05 05:25:13;;;;;;;18.48;10.02;;;5.40;99.90;;;;;;5013721;28;20375;-47
2023/03/05 05:27:39;;;;;;;19.67;10.45;;;5.50;99.90;;;;;;5013432;28;20026;-51
2023/03/05 05:30:05;;;;;;;19.27;10.07;;;5.40;99.90;;;;;;5013442;28;20030;-48
2023/03/05 05:32:31;;;;;;;21.52;10.77;;;5.40;99.90;;;;;;5012060;28;20026;-48
2023/03/05 05:34:57;;;;;;;15.32;9.50;;;5.40;99.90;;;;;;5013088;28;20034;-49
2023/03/05 05:37:24;;;;;;;18.98;9.38;;;5.40;99.90;;;;;;5013268;28;20050;-53
2023/03/05 05:39:49;;;;;;;17.73;8.95;;;5.40;99.90;;;;;;5013160;28;20036;-49
2023/03/05 05:42:20;;;;;;;20.20;8.93;;;5.40;99.90;;;;;;5013168;28;20097;-52
2023/03/05 05:44:46;;;;;;;20.58;8.93;;;5.40;99.90;;;;;;5011602;28;20044;-52
2023/03/05 05:47:12;;;;;;;18.30;8.85;;;5.40;99.90;;;;;;5012930;28;20028;-50
2023/03/05 05:49:38;;;;;;;24.15;9.57;;;5.40;99.90;;;;;;5013182;28;20030;-47
2023/03/05 05:52:03;;;;;;;18.33;7.82;;;5.40;99.90;;;;;;5013047;28;20057;-52
2023/03/05 05:54:29;;;;;;;15.60;8.85;;;5.40;99.90;;;;;;5012851;28;20029;-47
2023/03/05 05:56:54;;;;;;;16.65;9.10;;;5.40;99.90;;;;;;5012660;28;20026;-49
2023/03/05 05:59:20;;;;;;;16.38;7.95;;;5.40;99.90;;;;;;5011715;28;20025;-49
2023/03/05 06:01:45;;;;;;;15.20;7.70;;;5.40;99.90;;;;;;5012760;28;20030;-49
2023/03/05 06:04:11;;;;;;;18.55;9.48;;;5.30;99.90;;;;;;5012977;28;20030;-56
2023/03/05 06:06:36;;;;;;;16.83;7.90;;;5.40;99.90;;;;;;5012635;28;20025;-48
2023/03/05 06:09:02;;;;;;;19.27;7.88;;;5.40;99.90;;;;;;5012638;28;20022;-48
2023/03/05 06:11:28;;;;;;;14.38;8.65;;;5.30;99.90;;;;;;5012774;28;20014;-48
2023/03/05 06:13:54;;;;;;;22.98;9.88;;;5.30;99.90;;;;;;5012630;28;20029;-48
2023/03/05 06:16:22;;;;;;;20.55;9.35;;;5.30;99.90;;;;;;5012287;28;20041;-48
2023/03/05 06:18:48;;;;;;;16.98;9.10;;;5.20;99.90;;;;;;5012310;28;20026;-50
2023/03/05 06:21:16;;;;;;;16.13;8.68;;;5.20;99.90;;;;;;5026938;28;20049;-52
2023/03/05 06:23:44;;;;;;;13.25;7.97;;;5.20;99.90;;;;;;5012483;28;20109;-48
2023/03/05 06:26:12;;;;;;;14.73;8.23;;;5.20;99.90;;;;;;5012216;28;20022;-51
2023/03/05 06:28:38;;;;;;;14.25;7.57;;;5.20;99.90;;;;;;5011202;28;20393;-55
2023/03/05 06:31:09;;;;;;;11.10;7.55;;;5.10;99.90;;;;;;5012157;28;20061;-46
2023/03/05 06:33:35;;;;;;;15.02;8.60;;;5.10;99.90;;;;;;5012455;28;20036;-52
2023/03/05 06:36:06;;;;;;;15.48;8.32;;;5.20;99.90;;;;;;5012474;28;20429;-49
2023/03/05 06:38:32;;;;;;;14.48;6.78;;;5.10;99.90;;;;;;5011923;28;20026;-51
2023/03/05 06:41:08;;;;;;;15.35;6.93;;;5.20;99.90;;;;;;5012226;28;20034;-48
2023/03/05 06:43:36;;;;;;;11.43;6.75;;;5.20;99.90;;;;;;5011973;28;20440;-49
2023/03/05 06:46:23;;;;;;;14.77;8.90;;;5.20;99.90;;;;;;5031191;23;20049;-42
2023/03/05 06:48:49;;;;;;;13.15;7.57;;;5.30;99.90;;;;;;5010411;28;20053;-47
2023/03/05 06:51:16;;;;;;;17.83;9.15;;;5.30;99.90;;;;;;5011305;28;20089;-46
2023/03/05 06:53:43;;;;;;;16.08;8.73;;;5.40;99.90;;;;;;5010482;28;20030;-45
2023/03/05 06:56:08;;;;;;;20.90;11.27;;;5.30;99.90;;;;;;5012266;28;20038;-43
2023/03/05 06:58:34;;;;;;;19.40;10.77;;;5.40;99.90;;;;;;5011701;28;20080;-45
2023/03/05 07:01:00;;;;;;;21.38;11.75;;;5.30;99.90;;;;;;5012515;28;20030;-46
2023/03/05 07:03:25;;;;;;;25.13;11.05;;;5.30;99.90;;;;;;5010631;28;20433;-46
2023/03/05 07:05:51;;;;;;;23.10;10.98;;;5.40;99.90;;;;;;5012006;28;20052;-43
2023/03/05 07:08:16;;;;;;;23.85;12.32;;;5.30;99.90;;;;;;5012162;28;20060;-42
2023/03/05 07:10:43;;;;;;;23.13;12.60;;;5.20;99.90;;;;;;5012044;28;20036;-44
2023/03/05 07:13:09;;;;;;;29.90;13.95;;;5.10;99.90;;;;;;5011550;28;20452;-43
2023/03/05 07:15:37;;;;;;;21.83;13.15;;;5.20;99.90;;;;;;5010517;28;20505;-45
2023/03/05 07:18:03;;;;;;;26.20;13.35;;;5.20;99.90;;;;;;5011573;28;20108;-44
2023/03/05 07:20:29;;;;;;;26.38;12.55;;;5.10;99.90;;;;;;5011516;28;20570;-42
2023/03/05 07:22:54;;;;;;;21.40;11.00;;;5.10;99.90;;;;;;5011771;28;20105;-40
2023/03/05 07:25:20;;;;;;;18.45;10.73;;;5.20;99.90;;;;;;5011499;28;20478;-46
2023/03/05 07:27:47;;;;;;;21.13;10.88;;;5.20;99.90;;;;;;5011668;28;20082;-47
2023/03/05 07:30:13;;;;;;;20.63;11.50;;;5.20;99.90;;;;;;5011678;28;20041;-44
2023/03/05 07:32:39;;;;;;;15.45;9.80;;;5.20;99.90;;;;;;5014791;28;20022;-44
2023/03/05 07:35:05;;;;;;;20.80;11.10;;;5.20;99.90;;;;;;5015885;28;20557;-50
2023/03/05 07:37:30;;;;;;;14.18;9.93;;;5.20;99.90;;;;;;5015727;28;20417;-45
2023/03/05 07:39:56;;;;;;;16.63;9.80;;;5.30;99.90;;;;;;5015650;28;20022;-48
2023/03/05 07:42:22;;;;;;;22.10;10.32;;;5.30;99.90;;;;;;5015497;28;20038;-43
2023/03/05 07:44:47;;;;;;;18.75;10.02;;;5.20;99.90;;;;;;5015388;28;20101;-50
2023/03/05 07:47:13;;;;;;;19.35;10.18;;;5.20;99.90;;;;;;5015519;28;20034;-47
2023/03/05 07:49:40;;;;;;;19.48;9.65;;;5.30;99.90;;;;;;5015370;28;20037;-46
2023/03/05 07:52:06;;;;;;;17.77;9.75;;;5.30;99.90;;;;;;5014270;28;20489;-47
2023/03/05 07:54:36;;;;;;;19.08;9.85;;;5.40;99.90;;;;;;5014995;28;20057;-45
2023/03/05 07:57:06;;;;;;;18.05;8.90;;;5.50;99.90;;;;;;5015402;28;20044;-47
2023/03/05 07:59:31;;;;;;;16.50;9.52;;;5.50;99.90;;;;;;5015687;28;20073;-46
2023/03/05 08:01:57;;;;;;;16.70;10.57;;;5.50;99.90;;;;;;5015384;28;20045;-45
2023/03/05 08:04:23;;;;;;;15.77;10.18;;;5.60;99.90;;;;;;5015204;28;20026;-47
2023/03/05 08:06:48;;;;;;;14.95;9.10;;;5.60;99.90;;;;;;5015125;28;20041;-42
2023/03/05 08:09:15;;;;;;;13.85;9.07;;;5.70;99.90;;;;;;5015651;28;20557;-47
2023/03/05 08:11:41;;;;;;;19.85;9.65;;;5.50;99.90;;;;;;5015391;28;20080;-47
2023/03/05 08:14:06;;;;;;;20.20;9.48;;;5.60;99.90;;;;;;5015222;28;20030;-45
2023/03/05 08:16:32;;;;;;;17.05;8.63;;;5.60;99.90;;;;;;5015093;28;20022;-47
2023/03/05 08:18:58;;;;;;;22.05;9.20;;;5.60;99.90;;;;;;5014750;28;20085;-46
2023/03/05 08:21:29;;;;;;;14.85;8.23;;;5.70;99.90;;;;;;5013818;28;20449;-45
2023/03/05 08:23:56;;;;;;;16.02;8.35;;;5.70;99.90;;;;;;5012923;28;20029;-41
2023/03/05 08:26:24;;;;;;;18.55;7.53;;;5.80;99.90;;;;;;5002136;28;20030;-44
2023/03/05 08:28:50;;;;;;;12.25;7.38;;;5.70;99.90;;;;;;5001155;28;20026;-48
2023/03/05 08:31:20;;;;;;;22.63;9.25;;;5.70;99.90;;;;;;5010359;28;20505;-51
2023/03/05 08:33:46;;;;;;;15.60;7.90;;;5.70;99.90;;;;;;5013683;28;20488;-46
2023/03/05 08:36:12;;;;;;;16.58;9.00;;;5.80;99.90;;;;;;5012208;28;20034;-47
2023/03/05 08:38:37;;;;;;;18.50;8.25;;;5.90;99.90;;;;;;5008142;28;20037;-48
2023/03/05 08:41:03;;;;;;;16.05;8.50;;;5.90;99.90;;;;;;4993203;28;20027;-56
2023/03/05 08:43:30;;;;;;;18.25;7.07;;;6.00;99.90;;;;;;5003783;28;20021;-48
2023/03/05 08:45:55;;;;;;;13.13;7.95;;;6.10;99.90;;;;;;5014256;28;20054;-44
2023/03/05 08:48:21;;;;;;;17.38;7.75;;;6.00;99.90;;;;;;5014191;28;20449;-44
2023/03/05 08:50:47;;;;;;;23.02;9.98;;;6.00;99.90;;;;;;5014481;28;20033;-44
2023/03/05 08:53:13;;;;;;;14.73;8.32;;;6.10;99.90;;;;;;5014260;28;20101;-46
2023/03/05 08:55:38;;;;;;;11.30;7.20;;;6.10;99.90;;;;;;5014067;28;20463;-46
2023/03/05 08:58:04;;;;;;;11.40;6.88;;;6.10;99.90;;;;;;5013936;28;20101;-44
2023/03/05 09:00:29;;;;;;;12.75;7.68;;;6.10;99.90;;;;;;5014176;28;20026;-48
2023/03/05 09:02:56;;;;;;;12.88;6.72;;;6.20;99.90;;;;;;5012702;28;20030;-47
2023/03/05 09:05:21;;;;;;;13.80;7.15;;;6.20;99.90;;;;;;5013389;28;20018;-42
2023/03/05 09:07:47;;;;;;;10.88;6.57;;;6.30;99.90;;;;;;5012944;28;20502;-44
2023/03/05 09:10:13;;;;;;;14.05;7.85;;;6.30;99.90;;;;;;5013712;28;20485;-46
2023/03/05 09:12:40;;;;;;;9.93;6.80;;;6.30;99.90;;;;;;5014121;28;20473;-43
2023/03/05 09:15:07;;;;;;;13.93;8.10;;;6.30;99.90;;;;;;5013763;28;20036;-45
2023/03/05 09:17:34;;;;;;;12.85;6.85;;;6.40;99.90;;;;;;5013590;28;20482;-45
2023/03/05 09:20:01;;;;;;;11.32;6.10;;;6.40;99.90;;;;;;5013879;28;20037;-46
2023/03/05 09:22:28;;;;;;;10.13;6.05;;;6.40;99.90;;;;;;5012788;28;20026;-42
2023/03/05 09:24:54;;;;;;;12.50;5.50;;;6.50;99.90;;;;;;5013431;28;20022;-41
2023/03/05 09:27:19;;;;;;;8.98;5.85;;;6.40;99.90;;;;;;5013495;28;20022;-46
2023/03/05 09:29:45;;;;;;;15.30;6.68;;;6.40;99.90;;;;;;5012471;28;20034;-42
2023/03/05 09:32:10;;;;;;;10.63;5.60;;;6.40;99.90;;;;;;5013920;28;20025;-47
2023/03/05 09:34:36;;;;;;;12.80;6.63;;;6.40;99.90;;;;;;5013927;28;20450;-45
2023/03/05 09:37:02;;;;;;;9.25;6.32;;;6.40;99.90;;;;;;5012191;28;20030;-42
2023/03/05 09:39:28;;;;;;;12.80;5.85;;;6.40;99.90;;;;;;5013432;28;20087;-43
2023/03/05 09:42:02;;;;;;;8.52;6.47;;;6.60;99.90;;;;;;5013155;28;20469;-39
2023/03/05 09:44:53;;;;;;;10.63;6.15;;;6.60;99.90;;;;;;5013292;28;20036;-45
2023/03/05 09:47:43;;;;;;;10.02;6.07;;;6.60;99.90;;;;;;5012646;28;20065;-42
2023/03/05 09:50:32;;;;;;;9.07;5.82;;;6.70;99.90;;;;;;5013206;28;20116;-44
2023/03/05 09:53:01;;;;;;;18.70;7.07;;;6.70;99.90;;;;;;5012938;28;20030;-44
2023/03/05 09:55:39;;;;;;;10.45;6.63;;;6.80;99.90;;;;;;5011299;28;20406;-45
2023/03/05 09:58:11;;;;;;;16.67;7.38;;;6.90;99.90;;;;;;5009780;28;20030;-44
2023/03/05 10:00:40;;;;;;;7.20;5.18;;;6.70;99.90;;;;;;5011855;28;20092;-44
2023/03/05 10:03:25;;;;;;;12.57;6.32;;;6.70;99.90;;;;;;5010357;28;20029;-46
2023/03/05 10:06:02;;;;;;;11.43;5.85;;;6.70;99.90;;;;;;5012651;28;20029;-44
2023/03/05 10:08:40;;;;;;;9.73;5.28;;;6.60;99.90;;;;;;5013045;28;20029;-42
2023/03/05 10:11:20;;;;;;;8.90;5.50;;;6.60;99.90;;;;;;5012483;28;20045;-44
2023/03/05 10:13:46;;;;;;;10.10;5.85;;;6.60;99.90;;;;;;5012770;28;20113;-48
2023/03/05 10:16:38;;;;;;;11.38;5.97;;;6.70;99.90;;;;;;5007840;28;20149;-43
2023/03/05 10:19:21;;;;;;;9.30;5.50;;;6.70;99.90;;;;;;5012320;28;20160;-42
2023/03/05 10:21:58;;;;;;;10.98;5.50;;;6.60;99.90;;;;;;4998584;28;20088;-48
2023/03/05 10:24:45;;;;;;;10.13;6.47;;;6.50;99.90;;;;;;4993927;28;20421;-43
2023/03/05 10:27:50;;;;;;;8.68;5.18;;;6.50;99.90;;;;;;4992741;28;20069;-45
2023/03/05 10:30:53;;;;;;;13.00;6.57;;;6.60;99.90;;;;;;4996456;28;20393;-43
2023/03/05 10:33:55;;;;;;;10.60;6.07;;;6.50;99.90;;;;;;5000171;28;20128;-46
2023/03/05 10:36:28;;;;;;;16.25;5.68;;;6.60;99.90;;;;;;5001249;28;20026;-45
2023/03/05 10:38:58;;;;;;;57.80;18.88;;;6.60;99.90;;;;;;5012488;28;20045;-45
2023/03/05 10:41:44;;;;;;;38.10;17.95;;;6.80;99.90;;;;;;5012728;28;20025;-44
2023/03/05 10:44:28;;;;;;;23.87;12.53;;;6.90;99.90;;;;;;5013213;28;20459;-45
2023/03/05 10:46:57;;;;;;;13.40;7.22;;;6.70;99.90;;;;;;5012693;28;20560;-40
2023/03/05 10:49:31;;;;;;;8.98;5.43;;;6.70;99.90;;;;;;5012944;28;20051;-43
2023/03/05 10:52:27;;;;;;;8.20;5.15;;;6.70;99.90;;;;;;5012254;28;20033;-41
2023/03/05 10:54:52;;;;;;;9.82;5.82;;;6.70;99.90;;;;;;5012417;28;20033;-43
2023/03/05 10:57:22;;;;;;;9.05;5.47;;;6.70;99.90;;;;;;5011968;28;20489;-48
2023/03/05 10:59:52;;;;;;;8.65;5.07;;;6.70;99.90;;;;;;5011877;28;20022;-46
2023/03/05 11:02:20;;;;;;;8.88;5.20;;;6.80;99.90;;;;;;5012049;28;20101;-41
2023/03/05 11:04:49;;;;;;;14.18;5.28;;;6.80;99.90;;;;;;5012294;28;20083;-44
2023/03/05 11:07:14;;;;;;;7.28;4.95;;;6.80;99.90;;;;;;5012146;28;20022;-44
2023/03/05 11:09:41;;;;;;;8.52;5.20;;;6.80;99.90;;;;;;5012495;28;20378;-45
2023/03/05 11:12:20;;;;;;;8.15;5.25;;;6.80;99.90;;;;;;5012031;28;20029;-44
2023/03/05 11:15:09;;;;;;;7.38;5.22;;;6.90;99.90;;;;;;5012569;28;20088;-43
2023/03/05 11:17:38;;;;;;;11.95;5.03;;;6.90;99.90;;;;;;5011730;28;20026;-45
2023/03/05 11:20:25;;;;;;;11.05;4.93;;;6.90;99.90;;;;;;5009073;28;20022;-43
2023/03/05 11:23:10;;;;;;;7.97;4.97;;;6.80;99.90;;;;;;5011935;28;20072;-47
2023/03/05 11:25:57;;;;;;;6.38;4.30;;;6.90;99.90;;;;;;5011876;28;20366;-45
2023/03/05 11:28:48;;;;;;;7.95;4.75;;;6.90;99.90;;;;;;5012547;28;20030;-45
2023/03/05 11:31:14;;;;;;;5.90;4.10;;;6.90;99.90;;;;;;5009825;28;20042;-42
2023/03/05 11:33:55;;;;;;;9.70;4.78;;;6.90;99.90;;;;;;5012587;28;20084;-42
2023/03/05 11:36:41;;;;;;;7.43;4.63;;;6.90;99.90;;;;;;4993028;28;20050;-45
2023/03/05 11:39:06;;;;;;;9.23;4.30;;;6.80;99.90;;;;;;4991882;28;20502;-43
2023/03/05 11:42:01;;;;;;;7.60;4.97;;;6.70;99.90;;;;;;4992572;28;20027;-43
2023/03/05 11:44:49;;;;;;;8.95;4.70;;;6.60;99.90;;;;;;4989750;28;20078;-45
2023/03/05 11:47:23;;;;;;;9.98;4.78;;;6.50;99.90;;;;;;4992801;28;20069;-45
2023/03/05 11:49:52;;;;;;;9.40;5.32;;;6.50;99.90;;;;;;4992498;28;20105;-46
2023/03/05 11:52:25;;;;;;;6.70;4.75;;;6.50;99.90;;;;;;4992261;28;20035;-44
2023/03/05 11:55:18;;;;;;;8.93;5.30;;;6.50;99.90;;;;;;4992317;28;20033;-43
2023/03/05 11:58:02;;;;;;;8.32;5.07;;;6.50;99.90;;;;;;4990562;28;20022;-47
2023/03/05 12:00:31;;;;;;;8.68;5.22;;;6.50;99.90;;;;;;4991547;28;20018;-45
2023/03/05 12:03:01;;;;;;;7.68;5.10;;;6.40;99.90;;;;;;4991838;28;20453;-40
2023/03/05 12:05:28;;;;;;;8.13;5.07;;;6.50;99.90;;;;;;4995870;28;20092;-46
2023/03/05 12:07:59;;;;;;;15.43;7.22;;;6.60;99.90;;;;;;5009907;28;20033;-42
2023/03/05 12:10:25;;;;;;;8.80;5.00;;;6.60;99.90;;;;;;5011850;28;20108;-47
2023/03/05 12:13:05;;;;;;;6.93;4.25;;;6.70;99.90;;;;;;5012448;28;20521;-45
2023/03/05 12:15:56;;;;;;;11.38;5.22;;;6.70;99.90;;;;;;5012492;28;20033;-45
2023/03/05 12:18:39;;;;;;;14.55;7.55;;;6.80;99.90;;;;;;5012352;28;20046;-43
2023/03/05 12:21:13;;;;;;;22.90;9.90;;;6.90;99.90;;;;;;5015197;28;20109;-46
2023/03/05 12:23:47;;;;;;;15.35;7.80;;;6.80;99.90;;;;;;5014640;28;20069;-38
2023/03/05 12:26:12;;;;;;;14.32;6.45;;;6.90;99.90;;;;;;5014606;28;20025;-45
2023/03/05 12:28:41;;;;;;;17.40;6.82;;;6.90;99.90;;;;;;4994900;28;20042;-41
2023/03/05 12:31:27;;;;;;;15.07;7.28;;;7.00;99.90;;;;;;4995404;28;20085;-44
2023/03/05 12:33:53;;;;;;;14.63;5.20;;;6.90;99.90;;;;;;5004580;28;20030;-43
2023/03/05 12:36:18;;;;;;;8.38;4.05;;;6.90;99.90;;;;;;5013075;28;20037;-44
2023/03/05 12:38:54;;;;;;;7.65;3.70;;;7.00;99.90;;;;;;5014081;28;20053;-44
2023/03/05 12:41:22;;;;;;;6.78;3.95;;;7.00;99.90;;;;;;5014615;28;20037;-45
2023/03/05 12:44:06;;;;;;;4.78;3.45;;;7.00;99.90;;;;;;5014179;28;20026;-42
2023/03/05 12:47:05;;;;;;;6.80;3.90;;;7.10;99.90;;;;;;5033751;23;20619;-56
2023/03/05 12:49:38;;;;;;;5.05;2.90;;;7.20;99.90;;;;;;5003540;28;20037;-52
2023/03/05 12:52:11;;;;;;;3.55;2.90;;;7.30;99.90;;;;;;5013582;28;20029;-52
2023/03/05 12:54:39;;;;;;;6.30;2.80;;;7.20;99.90;;;;;;5008453;28;20163;-49